Time;durP1;ratioP1;P1;durP2;ratioP2;P2;SDS_P1;SDS_P2;PMS_P1;PMS_P2;Temp;Humidity;BMP_temperature;BMP_pressure;BME280_temperature;BME280_humidity;BME280_pressure;Samples;Min_cycle;Max_cycle;Signal;HPM_P1;HPM_P2
2022/04/26 03:36:53;;;;;;;5.85;3.58;;;11.40;98.00;;;;;;10197258;28;20034;-64
2022/04/26 03:41:43;;;;;;;6.13;3.78;;;11.40;98.00;;;;;;10201021;28;20051;-67
2022/04/26 03:46:34;;;;;;;5.60;3.72;;;11.40;98.00;;;;;;10201365;28;20064;-64
2022/04/26 03:51:25;;;;;;;6.28;3.70;;;11.50;97.80;;;;;;10189196;28;20109;-65
2022/04/26 03:56:15;;;;;;;6.22;3.90;;;11.40;97.90;;;;;;10208189;28;20031;-66
2022/04/26 04:01:06;;;;;;;6.68;3.72;;;11.40;97.80;;;;;;10192235;28;20031;-66
2022/04/26 04:05:57;;;;;;;6.18;3.70;;;11.30;97.80;;;;;;10172415;28;20024;-66
2022/04/26 04:10:47;;;;;;;6.43;3.67;;;11.20;97.70;;;;;;10196158;28;20028;-63
2022/04/26 04:15:38;;;;;;;7.20;4.68;;;11.10;97.70;;;;;;10184215;28;20046;-64
2022/04/26 04:20:31;;;;;;;5.63;3.75;;;11.00;97.70;;;;;;10188547;28;20051;-64
2022/04/26 04:25:22;;;;;;;5.90;3.65;;;10.90;97.80;;;;;;10184544;28;20052;-64
2022/04/26 04:30:13;;;;;;;5.28;3.22;;;10.90;97.70;;;;;;10188896;28;20036;-64
2022/04/26 04:35:05;;;;;;;5.80;3.67;;;10.80;97.80;;;;;;10192155;28;20031;-66
2022/04/26 04:39:56;;;;;;;6.38;4.40;;;10.90;97.80;;;;;;10198300;28;20136;-65
2022/04/26 04:44:47;;;;;;;5.93;4.25;;;10.90;97.80;;;;;;10186839;28;20015;-63
2022/04/26 04:49:37;;;;;;;7.95;3.67;;;10.80;97.90;;;;;;10207634;28;20471;-67
2022/04/26 04:54:28;;;;;;;5.45;4.03;;;10.80;97.90;;;;;;10180026;28;20023;-65
2022/04/26 04:59:18;;;;;;;6.57;4.35;;;10.80;97.70;;;;;;10183718;28;20170;-64
2022/04/26 05:04:09;;;;;;;5.47;4.20;;;10.80;97.80;;;;;;10191650;28;20032;-64
2022/04/26 05:09:00;;;;;;;5.65;3.70;;;10.90;97.80;;;;;;10201961;28;20024;-64
2022/04/26 05:13:51;;;;;;;6.60;4.38;;;10.80;97.80;;;;;;10183745;28;20027;-64
2022/04/26 05:18:41;;;;;;;6.15;4.40;;;10.80;97.80;;;;;;10188646;28;20036;-65
2022/04/26 05:28:41;;;;;;;8.30;5.07;;;10.80;97.90;;;;;;10188331;28;20735;-64
2022/04/26 05:33:32;;;;;;;7.57;4.85;;;10.70;98.00;;;;;;10198921;28;20269;-64
2022/04/26 05:38:22;;;;;;;8.23;4.82;;;10.70;98.10;;;;;;10203631;28;20036;-64
2022/04/26 05:43:13;;;;;;;9.98;4.68;;;10.70;98.10;;;;;;10215436;28;20027;-68
2022/04/26 05:48:04;;;;;;;5.40;3.97;;;10.80;98.10;;;;;;10190137;28;20027;-65
2022/04/26 05:52:55;;;;;;;7.00;4.75;;;10.90;98.00;;;;;;10197273;28;20108;-64
2022/04/26 05:57:46;;;;;;;7.10;4.32;;;10.90;98.00;;;;;;10201218;28;20036;-64
2022/04/26 06:02:36;;;;;;;6.88;5.10;;;10.90;98.10;;;;;;10191002;28;20119;-64
2022/04/26 06:07:27;;;;;;;8.52;5.70;;;11.00;98.00;;;;;;10214087;28;20352;-64
2022/04/26 06:12:18;;;;;;;10.73;6.00;;;11.10;98.10;;;;;;10209115;28;20035;-64
2022/04/26 06:17:09;;;;;;;9.65;6.22;;;11.10;98.00;;;;;;10201032;28;20050;-67
2022/04/26 06:22:00;;;;;;;12.85;6.13;;;11.10;98.10;;;;;;10200810;28;20043;-64
2022/04/26 06:26:50;;;;;;;7.72;5.22;;;11.20;98.10;;;;;;10207926;28;20054;-64
2022/04/26 06:31:41;;;;;;;9.43;5.68;;;11.30;98.10;;;;;;10191203;28;20035;-65
2022/04/26 06:36:31;;;;;;;12.15;6.03;;;11.30;98.00;;;;;;10209237;28;20020;-61
2022/04/26 06:41:22;;;;;;;11.02;6.10;;;11.40;97.90;;;;;;10207319;28;20073;-60
2022/04/26 06:46:13;;;;;;;9.10;5.78;;;11.50;97.80;;;;;;10205027;28;20066;-62
2022/04/26 06:51:03;;;;;;;8.07;5.95;;;11.60;97.90;;;;;;10203412;28;20032;-61
2022/04/26 06:55:54;;;;;;;10.07;6.57;;;11.80;97.90;;;;;;10212656;28;20020;-64
2022/04/26 07:00:46;;;;;;;10.23;6.45;;;12.10;97.80;;;;;;10214387;28;20031;-62
2022/04/26 07:05:37;;;;;;;11.23;6.28;;;12.00;97.80;;;;;;10214007;28;20079;-61
2022/04/26 07:10:30;;;;;;;9.50;6.43;;;12.00;97.90;;;;;;10211727;28;20102;-63
2022/04/26 07:15:21;;;;;;;10.48;7.60;;;12.10;97.60;;;;;;10206653;28;20473;-65
2022/04/26 07:20:12;;;;;;;9.85;6.78;;;12.40;97.50;;;;;;10177466;28;20470;-64
2022/04/26 07:25:07;;;;;;;8.07;5.72;;;12.60;97.40;;;;;;10200853;28;20052;-64
2022/04/26 07:29:57;;;;;;;7.73;5.23;;;12.40;97.40;;;;;;10201143;28;20028;-64
2022/04/26 07:34:48;;;;;;;8.77;6.20;;;12.40;97.20;;;;;;10203751;28;20092;-64
2022/04/26 07:39:39;;;;;;;10.63;7.03;;;12.30;97.10;;;;;;10197046;28;20028;-61
2022/04/26 07:44:30;;;;;;;10.48;6.10;;;12.30;96.70;;;;;;10189954;28;20641;-66
2022/04/26 07:49:26;;;;;;;7.43;5.05;;;12.50;96.50;;;;;;10201345;28;20034;-62
2022/04/26 07:54:17;;;;;;;;;;;12.50;96.20;;;;;;10161685;28;20397;-64
2022/04/26 07:59:08;;;;;;;8.60;5.47;;;12.40;95.40;;;;;;10184337;28;19920;-67
2022/04/26 08:03:59;;;;;;;12.32;5.70;;;12.40;96.00;;;;;;10209606;28;20058;-69
2022/04/26 08:08:50;;;;;;;7.10;5.40;;;12.60;95.80;;;;;;10199368;28;20106;-65
2022/04/26 08:13:41;;;;;;;7.63;5.88;;;12.80;95.30;;;;;;10187043;28;20114;-69
2022/04/26 08:18:32;;;;;;;9.93;5.95;;;12.90;95.20;;;;;;10199713;28;20035;-66
2022/04/26 08:23:22;;;;;;;8.80;4.65;;;12.90;95.10;;;;;;10195432;28;20040;-70
2022/04/26 08:28:13;;;;;;;6.20;4.72;;;13.00;95.00;;;;;;10185161;28;20486;-72
2022/04/26 08:33:04;;;;;;;9.57;5.45;;;13.40;94.70;;;;;;10199029;28;20032;-64
2022/04/26 08:37:55;;;;;;;10.43;6.07;;;13.50;94.50;;;;;;10203779;28;20169;-63
2022/04/26 08:42:48;;;;;;;9.95;6.22;;;13.60;94.20;;;;;;10193559;28;20044;-63
2022/04/26 08:52:50;;;;;;;6.13;5.03;;;13.90;94.10;;;;;;10181333;28;20111;-63
2022/04/26 08:57:41;;;;;;;6.20;4.88;;;14.30;94.10;;;;;;10188960;28;20023;-71
2022/04/26 09:02:34;;;;;;;8.00;5.55;;;14.70;93.60;;;;;;10209718;28;20406;-72
2022/04/26 09:07:33;;;;;;;10.05;5.82;;;14.90;93.20;;;;;;10197143;28;20110;-67
2022/04/26 09:12:24;;;;;;;8.85;6.50;;;14.70;93.40;;;;;;10181275;28;20024;-72
2022/04/26 09:17:17;;;;;;;16.58;5.93;;;14.40;93.30;;;;;;10186254;28;20485;-63
2022/04/26 09:22:15;;;;;;;13.75;8.93;;;13.30;93.20;;;;;;10187123;28;20035;-62
2022/04/26 09:27:15;;;;;;;9.90;7.78;;;12.60;93.60;;;;;;10198655;28;20047;-63
2022/04/26 09:32:08;;;;;;;14.15;8.38;;;12.00;93.80;;;;;;10201265;28;20166;-62
2022/04/26 09:37:04;;;;;;;17.75;9.90;;;12.00;93.90;;;;;;10206277;28;20038;-63
2022/04/26 09:41:55;;;;;;;13.05;7.68;;;11.90;93.80;;;;;;10203795;28;20036;-60
2022/04/26 09:46:47;;;;;;;13.43;7.45;;;11.90;93.90;;;;;;10202923;28;20037;-62
2022/04/26 09:51:39;;;;;;;13.93;8.57;;;12.10;93.80;;;;;;10196130;28;20051;-64
2022/04/26 09:56:31;;;;;;;16.15;9.50;;;12.30;93.60;;;;;;10206328;28;20115;-67
2022/04/26 10:01:35;;;;;;;11.63;7.63;;;12.50;93.60;;;;;;10204949;28;20047;-62
2022/04/26 10:06:26;;;;;;;10.40;6.90;;;12.50;93.80;;;;;;10205571;28;20031;-61
2022/04/26 10:11:17;;;;;;;13.70;8.23;;;12.60;93.80;;;;;;10196765;28;20070;-63
2022/04/26 10:16:11;;;;;;;13.45;7.55;;;12.70;93.70;;;;;;10190808;28;20047;-60
2022/04/26 10:21:04;;;;;;;12.55;7.57;;;12.90;93.70;;;;;;10169226;28;20046;-62
2022/04/26 10:26:23;;;;;;;9.85;6.70;;;13.60;93.40;;;;;;10191687;28;20177;-61
2022/04/26 10:31:13;;;;;;;14.00;8.57;;;13.90;93.00;;;;;;10210461;28;20026;-69
2022/04/26 10:36:19;;;;;;;11.88;7.75;;;13.80;93.20;;;;;;10212775;28;20385;-68
2022/04/26 10:41:10;;;;;;;;;;;13.60;93.10;;;;;;10206351;28;20078;-64
2022/04/26 10:46:15;;;;;;;12.80;7.35;;;13.90;92.50;;;;;;10199146;28;20418;-65
2022/04/26 10:51:34;;;;;;;12.67;7.40;;;14.10;92.60;;;;;;10200880;28;20036;-63
2022/04/26 10:56:25;;;;;;;12.07;7.38;;;14.20;92.20;;;;;;10205291;28;20454;-68
2022/04/26 11:01:16;;;;;;;14.35;8.95;;;14.50;92.20;;;;;;10205255;28;20036;-63
2022/04/26 11:06:07;;;;;;;11.32;7.07;;;14.30;91.80;;;;;;10210282;28;20492;-60
2022/04/26 11:11:10;;;;;;;7.00;5.07;;;14.30;91.70;;;;;;10194376;28;20496;-62
2022/04/26 11:16:20;;;;;;;10.07;6.20;;;14.50;91.00;;;;;;10176516;28;20031;-63
2022/04/26 11:21:12;;;;;;;7.30;5.40;;;14.80;90.30;;;;;;10195769;28;20036;-68
2022/04/26 11:31:16;;;;;;;6.53;4.75;;;14.80;89.60;;;;;;10205452;28;20074;-68
2022/04/26 11:36:10;;;;;;;9.25;5.60;;;15.00;89.10;;;;;;10209507;28;20058;-70
2022/04/26 11:41:03;;;;;;;8.00;5.17;;;15.50;87.30;;;;;;10196403;28;20280;-67
2022/04/26 11:45:56;;;;;;;7.93;5.60;;;15.40;87.60;;;;;;10199583;28;20066;-67
2022/04/26 11:50:50;;;;;;;8.00;4.82;;;15.10;87.80;;;;;;10204105;28;20057;-65
2022/04/26 11:55:46;;;;;;;5.37;4.00;;;15.50;86.30;;;;;;10203115;28;20020;-71
2022/04/26 12:00:53;;;;;;;6.72;5.15;;;16.10;85.00;;;;;;10196230;28;20035;-64
2022/04/26 12:05:45;;;;;;;6.70;4.43;;;16.40;84.10;;;;;;10209815;28;20015;-64
2022/04/26 12:10:35;;;;;;;7.82;5.32;;;15.90;84.70;;;;;;10207027;28;20080;-62
2022/04/26 12:15:29;;;;;;;8.20;5.43;;;15.70;84.30;;;;;;10202416;28;20079;-62
2022/04/26 12:20:19;;;;;;;6.15;4.47;;;15.60;83.80;;;;;;10194517;28;20040;-61
2022/04/26 12:25:14;;;;;;;6.38;4.15;;;15.80;83.40;;;;;;10176716;28;20040;-68
2022/04/26 12:30:09;;;;;;;;;;;16.60;81.50;;;;;;10203755;28;20044;-65
2022/04/26 12:35:00;;;;;;;6.57;4.70;;;16.60;78.80;;;;;;10203929;28;20369;-68
2022/04/26 12:39:53;;;;;;;4.55;3.40;;;16.20;81.60;;;;;;10209665;28;20043;-60
2022/04/26 12:44:49;;;;;;;3.00;2.20;;;15.40;82.40;;;;;;10202405;28;20394;-60
2022/04/26 12:55:11;;;;;;;3.88;2.53;;;14.60;83.00;;;;;;10189062;28;20524;-63
2022/04/26 13:00:02;;;;;;;4.28;3.30;;;14.60;82.80;;;;;;10189973;28;20043;-65
2022/04/26 13:04:52;;;;;;;5.10;3.67;;;15.60;83.10;;;;;;10180523;28;20034;-60
2022/04/26 13:09:43;;;;;;;5.55;3.75;;;15.70;82.90;;;;;;10188065;28;20107;-63
2022/04/26 13:14:34;;;;;;;5.10;4.35;;;18.30;82.10;;;;;;10191503;28;20063;-59
2022/04/26 13:19:25;;;;;;;5.93;4.30;;;18.60;81.30;;;;;;10191887;28;20035;-66
2022/04/26 13:24:17;;;;;;;5.15;4.20;;;19.70;80.50;;;;;;10195629;28;20038;-64
2022/04/26 13:29:07;;;;;;;5.15;3.10;;;21.00;77.60;;;;;;10192369;28;20092;-60
2022/04/26 13:33:58;;;;;;;4.55;3.38;;;22.00;74.30;;;;;;10193923;28;20081;-65
2022/04/26 13:38:49;;;;;;;4.68;3.60;;;23.20;71.80;;;;;;10204020;28;20039;-68
2022/04/26 13:43:42;;;;;;;4.95;4.05;;;23.80;68.90;;;;;;10200654;28;20405;-61
2022/04/26 13:48:33;;;;;;;4.35;3.78;;;24.60;66.30;;;;;;10205541;28;20397;-59
2022/04/26 13:53:23;;;;;;;7.57;5.10;;;20.60;70.00;;;;;;10181589;28;20054;-59
2022/04/26 13:58:14;;;;;;;5.47;4.47;;;17.90;73.10;;;;;;10182998;28;20024;-62
2022/04/26 14:03:06;;;;;;;6.53;4.20;;;16.10;73.70;;;;;;10195059;28;20271;-62
2022/04/26 14:07:56;;;;;;;4.65;3.85;;;17.60;73.10;;;;;;10200944;28;20066;-59
2022/04/26 14:12:47;;;;;;;5.63;4.53;;;21.50;67.40;;;;;;10191007;28;20498;-67
2022/04/26 14:22:47;;;;;;;5.20;4.65;;;24.50;63.80;;;;;;10199160;28;20126;-61
2022/04/26 14:27:40;;;;;;;6.70;5.47;;;24.60;62.40;;;;;;10199649;28;20119;-58
2022/04/26 14:32:34;;;;;;;5.70;4.95;;;23.90;62.00;;;;;;10195354;28;20032;-57
2022/04/26 14:37:25;;;;;;;8.07;5.10;;;23.90;62.20;;;;;;10182864;28;20610;-60
2022/04/26 14:42:15;;;;;;;6.63;5.22;;;24.30;60.50;;;;;;10198746;28;20054;-59
2022/04/26 14:47:09;;;;;;;6.75;5.22;;;24.10;59.20;;;;;;10206081;28;20408;-63
2022/04/26 14:52:00;;;;;;;8.18;5.78;;;22.00;59.00;;;;;;10192614;28;20425;-69
2022/04/26 14:56:51;;;;;;;7.03;4.90;;;19.00;61.40;;;;;;10200147;28;20388;-60
2022/04/26 15:01:45;;;;;;;10.68;6.20;;;18.40;62.60;;;;;;10200910;28;20042;-61
2022/04/26 15:06:36;;;;;;;9.60;5.77;;;17.60;63.10;;;;;;10206270;28;20560;-61
2022/04/26 15:11:27;;;;;;;8.75;5.95;;;17.10;64.80;;;;;;10208060;28;20115;-65
2022/04/26 15:21:26;;;;;;;11.38;7.78;;;17.10;64.20;;;;;;10207587;28;20055;-64
2022/04/26 15:26:17;;;;;;;12.27;7.15;;;16.80;64.50;;;;;;10211698;28;20058;-60
2022/04/26 15:31:08;;;;;;;11.00;7.05;;;16.30;64.80;;;;;;10198821;28;20056;-60
2022/04/26 15:36:02;;;;;;;12.80;7.70;;;16.20;65.10;;;;;;10215514;28;20247;-65
2022/04/26 15:40:54;;;;;;;14.05;7.90;;;16.10;65.10;;;;;;10215397;28;20093;-63
2022/04/26 15:45:45;;;;;;;15.13;8.63;;;15.90;65.50;;;;;;10187081;28;20099;-61
2022/04/26 15:50:39;;;;;;;12.32;7.10;;;15.70;66.40;;;;;;10206913;28;20405;-61
2022/04/26 15:55:30;;;;;;;6.57;4.03;;;16.00;66.60;;;;;;10210131;28;20034;-59
2022/04/26 16:00:21;;;;;;;4.63;3.08;;;16.10;66.60;;;;;;10197058;28;20048;-64
2022/04/26 16:05:13;;;;;;;3.80;2.67;;;15.80;68.50;;;;;;10212589;28;20378;-59
2022/04/26 16:20:29;;;;;;;6.75;2.97;;;15.50;70.90;;;;;;10188588;28;20559;-60
2022/04/26 16:25:20;;;;;;;4.03;2.38;;;15.30;72.20;;;;;;10204860;28;20548;-58
2022/04/26 16:30:11;;;;;;;3.47;2.53;;;15.10;73.30;;;;;;10204704;28;20125;-56
2022/04/26 16:35:01;;;;;;;4.85;2.70;;;15.00;73.70;;;;;;10192521;28;20028;-62
2022/04/26 16:39:52;;;;;;;3.60;2.42;;;15.30;73.50;;;;;;10202389;28;20047;-71
2022/04/26 16:44:43;;;;;;;6.30;2.58;;;15.30;74.00;;;;;;10195170;28;20090;-64
2022/04/26 16:49:33;;;;;;;5.03;3.03;;;15.60;74.50;;;;;;10191494;28;20461;-61
2022/04/26 16:54:24;;;;;;;3.92;2.55;;;15.70;74.10;;;;;;10190156;28;20443;-59
2022/04/26 16:59:17;;;;;;;5.70;2.63;;;15.50;74.60;;;;;;10211407;28;20039;-60
2022/04/26 17:04:12;;;;;;;3.25;2.33;;;15.40;74.90;;;;;;10212976;28;20075;-61
2022/04/26 17:09:02;;;;;;;8.43;2.38;;;15.30;75.30;;;;;;10203262;28;20019;-64
2022/04/26 17:13:53;;;;;;;5.20;2.97;;;15.40;75.40;;;;;;10213191;28;20474;-61
2022/04/26 17:18:47;;;;;;;4.80;3.03;;;15.40;75.50;;;;;;10210442;28;20020;-62
2022/04/26 17:23:39;;;;;;;12.13;4.00;;;16.80;73.60;;;;;;10212205;28;20553;-66
2022/04/26 17:28:29;;;;;;;4.05;2.80;;;17.00;72.60;;;;;;10205676;28;20502;-60
2022/04/26 17:33:20;;;;;;;3.05;2.47;;;16.20;74.80;;;;;;10205289;28;20039;-64
2022/04/26 17:38:11;;;;;;;4.32;2.30;;;15.60;76.10;;;;;;10189000;28;20232;-64
2022/04/26 17:43:02;;;;;;;3.20;2.05;;;15.20;77.70;;;;;;10217875;28;20439;-63
2022/04/26 17:47:54;;;;;;;4.93;2.47;;;14.90;77.60;;;;;;10200235;28;20035;-61
2022/04/26 17:57:55;;;;;;;3.28;2.05;;;14.40;79.50;;;;;;10207470;28;20050;-63
2022/04/26 18:02:47;;;;;;;5.32;2.13;;;14.30;80.10;;;;;;10216455;28;20057;-67
2022/04/26 18:07:38;;;;;;;7.38;2.50;;;14.20;80.10;;;;;;10201598;28;20042;-67
2022/04/26 18:12:29;;;;;;;3.72;2.05;;;14.00;80.50;;;;;;10209224;28;20074;-64
2022/04/26 18:17:20;;;;;;;4.18;2.22;;;14.00;80.80;;;;;;10200413;28;20092;-67
2022/04/26 18:22:11;;;;;;;3.42;2.33;;;13.90;80.80;;;;;;10181140;28;20085;-65
2022/04/26 18:27:01;;;;;;;8.25;3.72;;;14.00;80.90;;;;;;10200211;28;20110;-62
2022/04/26 18:31:52;;;;;;;4.68;3.17;;;13.90;80.90;;;;;;10219163;28;20374;-64
2022/04/26 18:36:43;;;;;;;5.35;3.10;;;14.10;81.00;;;;;;10213259;28;20092;-61
2022/04/26 18:41:33;;;;;;;4.60;2.50;;;14.10;80.80;;;;;;10196901;28;20051;-63
2022/04/26 18:46:26;;;;;;;5.75;2.67;;;14.20;81.10;;;;;;10204888;28;20047;-67
2022/04/26 18:51:17;;;;;;;4.72;2.78;;;14.00;81.20;;;;;;10201044;28;20083;-63
2022/04/26 18:56:08;;;;;;;6.32;2.45;;;13.80;81.90;;;;;;10199007;28;20100;-64
2022/04/26 19:01:00;;;;;;;4.07;2.58;;;13.80;82.20;;;;;;10182154;28;20031;-63
2022/04/26 19:05:51;;;;;;;3.35;2.40;;;13.80;82.50;;;;;;10209909;28;20097;-62
2022/04/26 19:15:55;;;;;;;6.53;2.80;;;13.70;83.20;;;;;;10206323;28;20053;-68
2022/04/26 19:20:46;;;;;;;4.60;3.25;;;13.70;83.20;;;;;;10212389;28;20043;-68
2022/04/26 19:25:36;;;;;;;4.75;2.53;;;13.60;83.30;;;;;;10191204;28;20123;-69
2022/04/26 19:30:27;;;;;;;4.18;2.45;;;13.50;83.80;;;;;;10206085;28;20035;-68
2022/04/26 19:35:18;;;;;;;4.40;2.75;;;13.40;84.10;;;;;;10205502;28;20085;-60
2022/04/26 19:40:09;;;;;;;4.18;2.20;;;13.30;84.60;;;;;;10201965;28;20032;-62
2022/04/26 19:45:00;;;;;;;4.55;2.55;;;13.30;84.90;;;;;;10191677;28;20032;-63
2022/04/26 19:55:00;;;;;;;5.75;2.53;;;13.20;85.60;;;;;;10185402;28;20081;-62
2022/04/26 19:59:52;;;;;;;4.05;2.20;;;13.10;86.00;;;;;;10184110;28;20089;-63
2022/04/26 20:04:43;;;;;;;4.90;2.53;;;12.90;86.60;;;;;;10193882;28;20482;-62
2022/04/26 20:09:33;;;;;;;2.70;2.00;;;12.90;86.50;;;;;;10200348;28;20122;-62
2022/04/26 20:14:24;;;;;;;4.03;1.88;;;12.90;86.50;;;;;;10197384;28;20022;-64
2022/04/26 20:19:15;;;;;;;2.78;1.88;;;12.60;86.50;;;;;;10192464;28;20035;-62
2022/04/26 20:24:06;;;;;;;3.35;1.65;;;12.40;86.50;;;;;;10208539;28;20032;-62
2022/04/26 20:34:07;;;;;;;1.65;1.35;;;12.10;86.50;;;;;;10190373;28;20390;-64
2022/04/26 20:38:58;;;;;;;2.85;1.15;;;12.20;86.70;;;;;;10204522;28;20038;-66
2022/04/26 20:43:48;;;;;;;1.83;1.17;;;12.20;86.40;;;;;;10200638;28;20089;-62
2022/04/26 20:48:43;;;;;;;2.35;1.20;;;12.20;86.50;;;;;;10187528;28;20080;-62
2022/04/26 20:53:34;;;;;;;1.75;1.30;;;12.20;86.50;;;;;;10187038;28;20032;-67
2022/04/26 20:58:24;;;;;;;2.40;1.73;;;12.10;86.60;;;;;;10197660;28;20035;-65
2022/04/26 21:03:15;;;;;;;3.67;1.20;;;12.00;87.00;;;;;;10186786;28;20054;-61
2022/04/26 21:08:06;;;;;;;1.48;1.20;;;11.80;87.00;;;;;;10180932;28;20024;-63
2022/04/26 21:18:06;;;;;;;1.95;1.30;;;11.70;87.30;;;;;;10204920;28;20023;-62
2022/04/26 21:22:58;;;;;;;1.80;1.00;;;11.80;87.10;;;;;;10190774;28;20127;-62
2022/04/26 21:27:48;;;;;;;2.95;1.70;;;11.80;87.30;;;;;;10193299;28;20251;-61
2022/04/26 21:32:39;;;;;;;3.03;1.40;;;11.60;87.30;;;;;;10195541;28;20074;-61
2022/04/26 21:37:30;;;;;;;2.15;1.15;;;11.70;87.40;;;;;;10198549;28;20061;-62
2022/04/26 21:42:21;;;;;;;1.67;1.48;;;11.80;87.60;;;;;;10192856;28;20123;-71
2022/04/26 21:47:12;;;;;;;2.05;1.50;;;11.80;87.50;;;;;;10198888;28;20423;-62
2022/04/26 21:52:02;;;;;;;2.47;1.63;;;11.70;87.60;;;;;;10187389;28;20032;-63
2022/04/26 21:56:53;;;;;;;2.08;1.55;;;11.70;88.00;;;;;;10186169;28;20051;-62
2022/04/26 22:01:44;;;;;;;1.77;1.08;;;11.80;87.80;;;;;;10185237;28;20036;-62
2022/04/26 22:06:34;;;;;;;2.72;1.33;;;11.80;88.00;;;;;;10180336;28;20021;-61
2022/04/26 22:11:25;;;;;;;5.72;1.77;;;11.70;88.00;;;;;;10188888;28;20032;-62
2022/04/26 22:16:15;;;;;;;2.03;1.23;;;11.80;88.30;;;;;;10189849;28;20058;-64
2022/04/26 22:21:07;;;;;;;2.90;1.83;;;11.70;88.50;;;;;;10181755;28;20469;-63
2022/04/26 22:25:58;;;;;;;1.98;1.33;;;11.80;88.40;;;;;;10189236;28;20426;-66
2022/04/26 22:30:51;;;;;;;1.75;1.20;;;11.80;88.60;;;;;;10200643;28;20034;-62
2022/04/26 22:35:42;;;;;;;2.53;1.63;;;11.80;88.70;;;;;;10197467;28;20643;-62
2022/04/26 22:40:33;;;;;;;4.32;2.40;;;12.00;88.60;;;;;;10194276;28;20126;-61
2022/04/26 22:45:24;;;;;;;3.78;1.90;;;11.80;89.00;;;;;;10176202;28;20114;-62
2022/04/26 22:50:14;;;;;;;3.28;2.33;;;11.90;89.20;;;;;;10204622;28;20035;-63
2022/04/26 22:55:06;;;;;;;2.50;1.88;;;11.80;89.30;;;;;;10199468;28;20020;-61
2022/04/26 22:59:56;;;;;;;4.35;1.92;;;11.80;89.30;;;;;;10187407;28;20116;-62
2022/04/26 23:04:50;;;;;;;2.50;1.70;;;11.80;89.30;;;;;;10202559;28;20050;-61
2022/04/26 23:09:41;;;;;;;2.95;1.80;;;11.80;89.40;;;;;;10193046;28;20059;-63
2022/04/26 23:14:32;;;;;;;3.90;1.63;;;11.80;89.70;;;;;;10198267;28;20521;-62
2022/04/26 23:19:23;;;;;;;2.97;1.55;;;11.90;89.60;;;;;;10194496;28;20035;-62
2022/04/26 23:24:14;;;;;;;3.38;1.70;;;11.70;90.10;;;;;;10169761;28;20516;-62
2022/04/26 23:29:07;;;;;;;3.58;1.65;;;11.90;90.00;;;;;;10199402;28;20023;-72
2022/04/26 23:39:07;;;;;;;4.05;1.90;;;11.90;90.00;;;;;;10197996;28;20105;-72
2022/04/26 23:43:57;;;;;;;1.85;1.30;;;11.80;90.10;;;;;;10190028;28;20039;-62
2022/04/26 23:48:51;;;;;;;2.45;1.45;;;11.80;90.20;;;;;;10193589;28;20171;-63
2022/04/26 23:53:42;;;;;;;3.03;1.80;;;11.90;90.10;;;;;;10193133;28;20020;-66
2022/04/26 23:58:33;;;;;;;2.47;1.48;;;11.90;90.20;;;;;;10189305;28;20479;-62
